createdAt,value
2023-04-15T00:01:10.570Z,3.30
2023-04-15T00:02:22.797Z,3.40
2023-04-15T00:03:30.636Z,3.90
2023-04-15T00:04:33.664Z,3.42
2023-04-15T00:05:37.517Z,3.60
2023-04-15T00:06:39.978Z,3.00
2023-04-15T00:07:43.465Z,3.70
2023-04-15T00:08:45.684Z,3.08
2023-04-15T00:09:55.087Z,3.60
2023-04-15T00:11:03.347Z,3.75
2023-04-15T00:12:09.120Z,3.83
2023-04-15T00:13:13.617Z,4.50
2023-04-15T00:14:21.611Z,3.63
2023-04-15T00:15:23.674Z,3.90
2023-04-15T00:16:34.018Z,3.78
2023-04-15T00:17:40.257Z,3.88
2023-04-15T00:18:45.235Z,3.90
2023-04-15T00:19:51.448Z,3.50
2023-04-15T00:20:54.599Z,3.35
2023-04-15T00:22:00.128Z,3.83
2023-04-15T00:23:04.131Z,3.35
2023-04-15T00:24:12.460Z,3.92
2023-04-15T00:25:18.017Z,3.88
2023-04-15T00:26:22.393Z,4.55
2023-04-15T00:27:26.130Z,3.70
2023-04-15T00:28:31.022Z,3.85
2023-04-15T00:29:34.717Z,3.72
2023-04-15T00:30:36.882Z,4.65
2023-04-15T00:31:43.252Z,4.20
2023-04-15T00:32:45.643Z,4.38
2023-04-15T00:33:55.987Z,4.50
2023-04-15T00:35:04.086Z,4.03
2023-04-15T00:36:10.008Z,3.63
2023-04-15T00:37:13.141Z,4.15
2023-04-15T00:38:22.166Z,4.13
2023-04-15T00:39:24.250Z,3.13
2023-04-15T00:40:27.775Z,4.30
2023-04-15T00:41:34.028Z,4.43
2023-04-15T00:42:40.259Z,3.70
2023-04-15T00:43:43.536Z,4.28
2023-04-15T00:44:46.921Z,4.20
2023-04-15T00:45:50.266Z,3.50
2023-04-15T00:46:54.028Z,3.25
2023-04-15T00:48:02.392Z,3.47
2023-04-15T00:49:10.825Z,3.53
2023-04-15T00:50:13.246Z,3.90
2023-04-15T00:51:16.251Z,5.32
2023-04-15T00:52:45.528Z,4.10
2023-04-15T00:53:52.215Z,4.25
2023-04-15T00:54:55.230Z,4.70
2023-04-15T00:56:00.543Z,4.22
2023-04-15T00:57:03.730Z,4.20
2023-04-15T00:58:05.779Z,4.45
2023-04-15T00:59:12.510Z,4.30
2023-04-15T01:00:17.824Z,3.90
2023-04-15T01:01:25.387Z,3.78
2023-04-15T01:02:34.533Z,4.32
2023-04-15T01:03:50.301Z,4.03
2023-04-15T01:04:54.885Z,3.67
2023-04-15T01:05:58.307Z,4.28
2023-04-15T01:07:02.987Z,3.83
2023-04-15T01:08:06.937Z,4.72
2023-04-15T01:09:12.839Z,4.45
2023-04-15T01:10:14.886Z,4.22
2023-04-15T01:11:24.050Z,4.18
2023-04-15T01:12:28.896Z,4.13
2023-04-15T01:13:35.722Z,4.82
2023-04-15T01:14:42.077Z,4.75
2023-04-15T01:15:45.880Z,4.10
2023-04-15T01:16:54.913Z,3.83
2023-04-15T01:18:00.946Z,3.70
2023-04-15T01:19:03.580Z,3.85
2023-04-15T01:20:12.132Z,3.80
2023-04-15T01:21:14.324Z,4.45
2023-04-15T01:22:20.196Z,4.35
2023-04-15T01:23:23.131Z,4.07
2023-04-15T01:24:28.819Z,4.15
2023-04-15T01:25:35.019Z,4.10
2023-04-15T01:26:40.978Z,4.15
2023-04-15T01:27:43.817Z,3.35
2023-04-15T01:28:50.938Z,3.90
2023-04-15T01:29:52.968Z,3.45
2023-04-15T01:31:09.911Z,3.80
2023-04-15T01:32:12.863Z,3.72
2023-04-15T01:33:17.300Z,3.92
2023-04-15T01:34:23.850Z,3.88
2023-04-15T01:35:36.338Z,4.25
2023-04-15T01:36:40.271Z,3.70
2023-04-15T01:37:43.469Z,4.90
2023-04-15T01:38:45.657Z,4.35
2023-04-15T01:40:10.755Z,3.90
2023-04-15T01:41:23.805Z,3.78
2023-04-15T01:42:33.697Z,3.72
2023-04-15T01:43:43.504Z,4.40
2023-04-15T01:44:46.904Z,3.88
2023-04-15T01:45:55.748Z,4.15
2023-04-15T01:47:01.743Z,4.07
2023-04-15T01:48:03.900Z,4.25
2023-04-15T01:49:08.931Z,3.97
2023-04-15T01:50:28.157Z,3.97
2023-04-15T01:51:34.223Z,3.80
2023-04-15T01:52:38.194Z,3.72
2023-04-15T01:53:43.438Z,4.30
2023-04-15T01:54:45.807Z,4.25
2023-04-15T01:55:49.083Z,4.70
2023-04-15T01:56:52.624Z,4.93
2023-04-15T01:57:56.160Z,5.35
2023-04-15T01:59:02.578Z,4.50
2023-04-15T02:00:09.112Z,3.78
2023-04-15T02:01:20.276Z,4.13
2023-04-15T02:02:23.634Z,4.85
2023-04-15T02:03:25.967Z,3.58
2023-04-15T02:04:29.271Z,4.25
2023-04-15T02:05:34.960Z,4.40
2023-04-15T02:06:42.122Z,3.80
2023-04-15T02:07:44.234Z,4.00
2023-04-15T02:08:48.365Z,5.07
2023-04-15T02:09:52.102Z,4.03
2023-04-15T02:10:55.122Z,4.38
2023-04-15T02:12:01.894Z,4.22
2023-04-15T02:13:05.407Z,3.90
2023-04-15T02:14:07.747Z,5.35
2023-04-15T02:15:12.891Z,4.38
2023-04-15T02:16:19.038Z,4.50
2023-04-15T02:17:24.146Z,4.43
2023-04-15T02:18:26.466Z,4.65
2023-04-15T02:19:29.507Z,4.82
2023-04-15T02:20:32.120Z,4.40
2023-04-15T02:21:35.365Z,4.30
2023-04-15T02:22:39.601Z,4.68
2023-04-15T02:23:44.000Z,4.10
2023-04-15T02:24:49.623Z,3.55
2023-04-15T02:25:57.553Z,4.05
2023-04-15T02:27:01.825Z,4.78
2023-04-15T02:28:05.422Z,4.10
2023-04-15T02:29:20.203Z,5.00
2023-04-15T02:30:23.922Z,4.82
2023-04-15T02:31:27.319Z,4.55
2023-04-15T02:32:29.463Z,4.57
2023-04-15T02:33:35.622Z,3.75
2023-04-15T02:34:41.407Z,3.95
2023-04-15T02:35:45.472Z,4.22
2023-04-15T02:36:57.115Z,4.38
2023-04-15T02:38:10.868Z,4.55
2023-04-15T02:39:14.814Z,4.75
2023-04-15T02:40:22.159Z,4.93
2023-04-15T02:41:27.324Z,4.57
2023-04-15T02:42:34.866Z,5.22
2023-04-15T02:43:38.024Z,4.60
2023-04-15T02:44:41.562Z,4.18
2023-04-15T02:45:43.881Z,5.05
2023-04-15T02:46:50.763Z,4.10
2023-04-15T02:47:52.995Z,4.68
2023-04-15T02:48:57.577Z,4.68
2023-04-15T02:50:03.172Z,4.93
2023-04-15T02:51:22.410Z,4.00
2023-04-15T02:52:24.770Z,4.40
2023-04-15T02:53:28.131Z,5.05
2023-04-15T02:54:33.890Z,4.40
2023-04-15T02:55:41.463Z,4.22
2023-04-15T02:56:43.631Z,5.10
2023-04-15T02:57:48.137Z,4.72
2023-04-15T02:58:57.067Z,5.05
2023-04-15T03:00:00.120Z,4.85
2023-04-15T03:01:02.666Z,4.63
2023-04-15T03:02:12.122Z,4.93
2023-04-15T03:03:15.479Z,5.05
2023-04-15T03:04:20.958Z,4.75
2023-04-15T03:05:25.339Z,4.90
2023-04-15T03:06:35.001Z,4.70
2023-04-15T03:07:38.038Z,5.18
2023-04-15T03:08:42.473Z,4.88
2023-04-15T03:09:45.686Z,4.93
2023-04-15T03:10:52.366Z,5.00
2023-04-15T03:11:56.856Z,4.88
2023-04-15T03:13:02.576Z,5.22
2023-04-15T03:14:05.956Z,4.07
2023-04-15T03:15:11.468Z,4.57
2023-04-15T03:16:23.184Z,3.80
2023-04-15T03:17:25.342Z,3.97
2023-04-15T03:18:36.470Z,4.45
2023-04-15T03:19:44.468Z,4.57
2023-04-15T03:20:47.938Z,4.13
2023-04-15T03:21:50.387Z,4.57
2023-04-15T03:22:53.446Z,3.92
2023-04-15T03:23:59.333Z,4.95
2023-04-15T03:25:04.915Z,4.60
2023-04-15T03:26:09.987Z,4.88
2023-04-15T03:27:13.208Z,5.68
2023-04-15T03:28:16.698Z,4.95
2023-04-15T03:29:20.254Z,4.03
2023-04-15T03:30:23.035Z,3.75
2023-04-15T03:31:26.996Z,5.40
2023-04-15T03:32:31.340Z,4.80
2023-04-15T03:33:34.466Z,4.20
2023-04-15T03:34:36.689Z,3.90
2023-04-15T03:35:48.791Z,4.57
2023-04-15T03:36:54.261Z,4.40
2023-04-15T03:37:56.329Z,4.82
2023-04-15T03:39:06.764Z,3.50
2023-04-15T03:40:12.001Z,4.32
2023-04-15T03:41:15.477Z,4.03
2023-04-15T03:42:20.400Z,4.60
2023-04-15T03:43:24.761Z,4.22
2023-04-15T03:44:28.832Z,4.25
2023-04-15T03:45:34.522Z,3.83
2023-04-15T03:46:38.386Z,4.60
2023-04-15T03:47:44.132Z,3.83
2023-04-15T03:48:47.224Z,4.95
2023-04-15T03:49:52.733Z,4.30
2023-04-15T03:50:54.795Z,4.10
2023-04-15T03:52:01.816Z,4.70
2023-04-15T03:53:04.960Z,4.80
2023-04-15T03:54:08.024Z,4.50
2023-04-15T03:55:10.258Z,3.97
2023-04-15T03:56:13.304Z,4.18
2023-04-15T03:57:15.473Z,4.47
2023-04-15T03:58:23.171Z,3.70
2023-04-15T03:59:26.491Z,4.28
2023-04-15T04:00:31.943Z,4.07
2023-04-15T04:01:34.044Z,4.30
2023-04-15T04:02:37.448Z,3.83
2023-04-15T04:03:39.987Z,3.63
2023-04-15T04:04:43.733Z,3.55
2023-04-15T04:05:45.959Z,3.20
2023-04-15T04:07:06.743Z,4.00
2023-04-15T04:08:13.973Z,3.70
2023-04-15T04:09:17.068Z,4.10
2023-04-15T04:10:19.548Z,3.58
2023-04-15T04:11:22.775Z,4.00
2023-04-15T04:12:24.818Z,4.15
2023-04-15T04:13:27.759Z,4.35
2023-04-15T04:14:33.699Z,4.45
2023-04-15T04:15:36.871Z,3.80
2023-04-15T04:16:38.999Z,3.50
2023-04-15T04:17:42.379Z,4.25
2023-04-15T04:18:44.451Z,3.85
2023-04-15T04:19:53.556Z,3.45
2023-04-15T04:20:55.819Z,3.35
2023-04-15T04:21:58.935Z,3.30
2023-04-15T04:23:04.039Z,3.50
2023-04-15T04:24:08.534Z,3.60
2023-04-15T04:25:11.066Z,3.80
2023-04-15T04:26:14.089Z,4.10
2023-04-15T04:27:16.463Z,4.15
2023-04-15T04:28:19.757Z,3.08
2023-04-15T04:29:24.140Z,3.55
2023-04-15T04:30:28.638Z,4.05
2023-04-15T04:31:30.973Z,4.63
2023-04-15T04:32:34.093Z,3.35
2023-04-15T04:33:36.270Z,3.47
2023-04-15T04:34:40.468Z,3.30
2023-04-15T04:35:42.511Z,3.92
2023-04-15T04:36:45.556Z,3.83
2023-04-15T04:37:47.682Z,4.30
2023-04-15T04:38:50.718Z,3.40
2023-04-15T04:39:52.843Z,4.63
2023-04-15T04:40:55.949Z,3.85
2023-04-15T04:42:01.175Z,3.65
2023-04-15T04:43:04.493Z,3.83
2023-04-15T04:44:06.465Z,3.45
2023-04-15T04:45:10.390Z,4.20
2023-04-15T04:46:13.820Z,4.75
2023-04-15T04:47:16.868Z,3.00
2023-04-15T04:48:19.927Z,3.47
2023-04-15T04:49:24.314Z,3.45
2023-04-15T04:50:27.602Z,3.08
2023-04-15T04:51:32.497Z,3.30
2023-04-15T04:52:36.810Z,3.70
2023-04-15T04:53:46.782Z,3.72
2023-04-15T04:54:53.034Z,3.30
2023-04-15T04:55:55.031Z,3.08
2023-04-15T04:56:58.890Z,3.40
2023-04-15T04:58:01.360Z,2.97
2023-04-15T04:59:04.434Z,2.97
2023-04-15T05:00:08.539Z,2.70
2023-04-15T05:01:11.823Z,3.13
2023-04-15T05:02:15.559Z,3.30
2023-04-15T05:03:23.440Z,3.05
2023-04-15T05:04:26.499Z,3.80
2023-04-15T05:05:29.602Z,3.05
2023-04-15T05:06:32.665Z,3.42
2023-04-15T05:07:37.044Z,3.38
2023-04-15T05:08:42.654Z,3.00
2023-04-15T05:09:49.757Z,3.28
2023-04-15T05:10:55.211Z,3.30
2023-04-15T05:11:57.416Z,3.65
2023-04-15T05:13:02.606Z,2.88
2023-04-15T05:14:04.637Z,3.05
2023-04-15T05:15:09.212Z,2.40
2023-04-15T05:16:12.979Z,3.30
2023-04-15T05:17:20.800Z,3.33
2023-04-15T05:18:22.873Z,2.85
2023-04-15T05:19:25.950Z,3.13
2023-04-15T05:20:32.238Z,2.80
2023-04-15T05:21:34.258Z,3.80
2023-04-15T05:22:37.924Z,2.60
2023-04-15T05:23:42.404Z,2.97
2023-04-15T05:24:45.504Z,3.00
2023-04-15T05:25:47.679Z,3.30
2023-04-15T05:26:56.163Z,3.65
2023-04-15T05:28:03.703Z,3.30
2023-04-15T05:29:05.729Z,3.00
2023-04-15T05:30:13.404Z,3.05
2023-04-15T05:31:20.212Z,3.40
2023-04-15T05:32:24.687Z,3.25
2023-04-15T05:33:27.644Z,3.30
2023-04-15T05:34:31.359Z,3.33
2023-04-15T05:35:33.506Z,3.42
2023-04-15T05:36:36.528Z,3.10
2023-04-15T05:37:38.674Z,3.30
2023-04-15T05:38:43.258Z,2.95
2023-04-15T05:39:49.364Z,3.38
2023-04-15T05:40:54.805Z,2.95
2023-04-15T05:42:01.013Z,3.35
2023-04-15T05:43:04.184Z,2.78
2023-04-15T05:44:07.537Z,2.75
2023-04-15T05:45:11.327Z,2.95
2023-04-15T05:46:13.337Z,3.10
2023-04-15T05:47:18.964Z,3.05
2023-04-15T05:48:39.567Z,3.33
2023-04-15T05:49:46.024Z,2.70
2023-04-15T05:50:49.438Z,2.80
2023-04-15T05:51:53.965Z,2.83
2023-04-15T05:52:57.586Z,2.15
2023-04-15T05:54:02.869Z,2.40
2023-04-15T05:55:07.068Z,3.05
2023-04-15T05:56:17.947Z,2.53
2023-04-15T05:57:24.574Z,2.40
2023-04-15T05:58:28.955Z,2.90
2023-04-15T05:59:33.029Z,2.25
2023-04-15T06:00:36.105Z,2.72
2023-04-15T06:01:41.647Z,2.30
2023-04-15T06:02:45.903Z,2.25
2023-04-15T06:04:02.108Z,2.60
2023-04-15T06:05:11.655Z,2.30
2023-04-15T06:06:14.432Z,2.90
2023-04-15T06:07:17.916Z,2.10
2023-04-15T06:08:22.291Z,2.10
2023-04-15T06:09:25.521Z,2.20
2023-04-15T06:10:32.477Z,2.55
2023-04-15T06:11:37.917Z,2.10
2023-04-15T06:12:43.536Z,2.40
2023-04-15T06:13:46.210Z,2.15
2023-04-15T06:14:52.428Z,2.53
2023-04-15T06:15:54.787Z,1.90
2023-04-15T06:16:58.030Z,2.17
2023-04-15T06:18:03.502Z,3.05
2023-04-15T06:19:09.753Z,2.47
2023-04-15T06:21:01.708Z,2.17
2023-04-15T06:21:46.826Z,2.58
2023-04-15T06:22:57.606Z,2.20
2023-04-15T06:24:02.339Z,2.30
2023-04-15T06:25:06.414Z,2.75
2023-04-15T06:26:14.661Z,2.33
2023-04-15T06:27:27.218Z,2.20
2023-04-15T06:28:37.367Z,2.53
2023-04-15T06:30:02.198Z,2.55
2023-04-15T06:31:04.402Z,1.55
2023-04-15T06:32:08.200Z,2.45
2023-04-15T06:33:13.337Z,2.00
2023-04-15T06:34:18.635Z,2.30
2023-04-15T06:35:23.300Z,2.50
2023-04-15T06:36:32.868Z,2.20
2023-04-15T06:37:35.120Z,2.38
2023-04-15T06:38:45.920Z,2.55
2023-04-15T06:40:02.509Z,2.40
2023-04-15T06:41:06.135Z,2.25
2023-04-15T06:42:13.208Z,2.30
2023-04-15T06:43:17.587Z,2.30
2023-04-15T06:44:47.077Z,2.13
2023-04-15T06:46:00.625Z,2.30
2023-04-15T06:47:04.819Z,2.55
2023-04-15T06:48:08.215Z,2.30
2023-04-15T06:49:12.996Z,2.55
2023-04-15T06:50:19.389Z,2.30
2023-04-15T06:51:25.579Z,2.80
2023-04-15T06:52:36.299Z,1.98
2023-04-15T06:53:44.682Z,2.05
2023-04-15T06:54:50.678Z,1.98
2023-04-15T06:55:53.618Z,2.13
2023-04-15T06:57:05.801Z,2.22
2023-04-15T06:58:16.926Z,2.50
2023-04-15T06:59:20.113Z,2.75
2023-04-15T07:00:22.562Z,2.08
2023-04-15T07:01:26.035Z,2.08
2023-04-15T07:02:28.281Z,2.00
2023-04-15T07:03:32.903Z,1.85
2023-04-15T07:04:35.265Z,1.95
2023-04-15T07:05:42.926Z,2.25
2023-04-15T07:06:45.312Z,2.03
2023-04-15T07:07:48.726Z,1.80
2023-04-15T07:08:50.819Z,2.10
2023-04-15T07:09:54.240Z,1.90
2023-04-15T07:10:57.340Z,1.80
2023-04-15T07:11:59.764Z,1.75
2023-04-15T07:13:03.123Z,2.38
2023-04-15T07:14:05.187Z,1.92
2023-04-15T07:15:13.788Z,1.90
2023-04-15T07:16:15.978Z,1.52
2023-04-15T07:17:19.166Z,2.55
2023-04-15T07:18:21.235Z,1.83
2023-04-15T07:19:24.328Z,1.80
2023-04-15T07:20:27.313Z,2.15
2023-04-15T07:21:31.039Z,2.30
2023-04-15T07:22:34.457Z,2.15
2023-04-15T07:23:36.467Z,1.83
2023-04-15T07:24:39.897Z,1.88
2023-04-15T07:25:41.945Z,1.52
2023-04-15T07:26:45.173Z,1.45
2023-04-15T07:27:48.644Z,1.50
2023-04-15T07:28:51.668Z,1.65
2023-04-15T07:29:54.774Z,2.13
2023-04-15T07:30:57.548Z,2.05
2023-04-15T07:32:00.962Z,2.15
2023-04-15T07:33:04.222Z,2.10
2023-04-15T07:34:07.417Z,1.85
2023-04-15T07:35:11.629Z,1.95
2023-04-15T07:36:13.977Z,2.33
2023-04-15T07:37:19.011Z,2.05
2023-04-15T07:38:21.960Z,1.67
2023-04-15T07:39:24.979Z,1.90
2023-04-15T07:40:27.204Z,1.90
2023-04-15T07:41:30.580Z,1.90
2023-04-15T07:42:32.931Z,1.83
2023-04-15T07:43:35.934Z,1.60
2023-04-15T07:44:39.065Z,2.05
2023-04-15T07:45:41.081Z,2.00
2023-04-15T07:46:44.146Z,1.60
2023-04-15T07:47:46.891Z,2.08
2023-04-15T07:48:50.179Z,1.92
2023-04-15T07:49:52.189Z,2.22
2023-04-15T07:50:55.332Z,2.25
2023-04-15T07:51:57.917Z,1.95
2023-04-15T07:53:02.305Z,2.20
2023-04-15T07:54:04.380Z,2.70
2023-04-15T07:55:08.709Z,2.13
2023-04-15T07:56:11.310Z,2.55
2023-04-15T07:57:14.405Z,2.47
2023-04-15T07:58:16.542Z,2.75
2023-04-15T07:59:19.987Z,3.08
2023-04-15T08:00:22.438Z,2.10
2023-04-15T08:01:25.387Z,2.40
2023-04-15T08:02:27.930Z,2.25
2023-04-15T08:03:32.160Z,2.10
2023-04-15T08:04:34.723Z,2.28
2023-04-15T08:05:38.268Z,1.90
2023-04-15T08:06:42.718Z,2.00
2023-04-15T08:07:45.511Z,1.88
2023-04-15T08:08:50.021Z,1.98
2023-04-15T08:09:53.082Z,2.50
2023-04-15T08:10:56.460Z,2.10
2023-04-15T08:11:59.523Z,2.03
2023-04-15T08:13:01.695Z,2.10
2023-04-15T08:14:04.733Z,2.10
2023-04-15T08:15:08.445Z,1.60
2023-04-15T08:16:18.973Z,1.92
2023-04-15T08:17:21.343Z,2.15
2023-04-15T08:18:24.423Z,2.40
2023-04-15T08:19:30.830Z,2.20
2023-04-15T08:20:33.117Z,2.15
2023-04-15T08:21:37.541Z,2.00
2023-04-15T08:22:39.509Z,2.50
2023-04-15T08:23:42.704Z,2.58
2023-04-15T08:24:47.174Z,2.15
2023-04-15T08:25:49.386Z,1.95
2023-04-15T08:26:52.866Z,2.30
2023-04-15T08:27:57.038Z,2.25
2023-04-15T08:29:00.279Z,2.75
2023-04-15T08:30:04.859Z,2.20
2023-04-15T08:31:08.650Z,2.30
2023-04-15T08:32:10.732Z,2.50
2023-04-15T08:33:13.811Z,2.00
2023-04-15T08:34:16.280Z,2.35
2023-04-15T08:35:19.409Z,2.20
2023-04-15T08:36:21.543Z,2.40
2023-04-15T08:37:24.610Z,2.38
2023-04-15T08:38:50.359Z,2.40
2023-04-15T08:39:54.967Z,2.20
2023-04-15T08:40:58.483Z,2.50
2023-04-15T08:42:04.125Z,2.33
2023-04-15T08:43:08.711Z,2.47
2023-04-15T08:44:11.961Z,2.20
2023-04-15T08:45:14.516Z,2.40
2023-04-15T08:46:17.940Z,2.55
2023-04-15T08:47:22.847Z,2.78
2023-04-15T08:48:29.011Z,2.55
2023-04-15T08:49:32.906Z,3.05
2023-04-15T08:50:35.341Z,2.33
2023-04-15T08:51:38.671Z,2.78
2023-04-15T08:52:40.798Z,2.85
2023-04-15T08:53:46.568Z,2.72
2023-04-15T08:54:49.192Z,2.63
2023-04-15T08:55:57.418Z,2.97
2023-04-15T08:56:59.857Z,2.58
2023-04-15T08:58:03.429Z,2.60
2023-04-15T08:59:07.189Z,2.25
2023-04-15T09:00:10.788Z,2.47
2023-04-15T09:01:14.183Z,2.03
2023-04-15T09:02:16.497Z,2.85
2023-04-15T09:03:20.056Z,2.20
2023-04-15T09:04:22.292Z,2.10
2023-04-15T09:05:25.692Z,2.45
2023-04-15T09:06:28.751Z,2.75
2023-04-15T09:07:33.429Z,2.70
2023-04-15T09:08:36.709Z,2.60
2023-04-15T09:09:40.285Z,2.80
2023-04-15T09:10:43.990Z,2.60
2023-04-15T09:11:50.026Z,2.45
2023-04-15T09:12:52.657Z,2.30
2023-04-15T09:13:55.711Z,2.83
2023-04-15T09:14:58.276Z,2.78
2023-04-15T09:16:04.026Z,2.60
2023-04-15T09:17:06.309Z,2.80
2023-04-15T09:18:09.528Z,2.85
2023-04-15T09:19:22.985Z,2.53
2023-04-15T09:20:25.133Z,2.60
2023-04-15T09:21:29.547Z,2.78
2023-04-15T09:22:32.897Z,2.20
2023-04-15T09:23:36.664Z,2.20
2023-04-15T09:24:43.305Z,2.70
2023-04-15T09:25:46.228Z,2.65
2023-04-15T09:26:55.437Z,2.35
2023-04-15T09:27:59.197Z,2.30
2023-04-15T09:29:13.713Z,2.60
2023-04-15T09:30:16.860Z,2.22
2023-04-15T09:31:30.715Z,2.20
2023-04-15T09:32:35.542Z,2.45
2023-04-15T09:33:56.201Z,2.45
2023-04-15T09:34:59.313Z,3.15
2023-04-15T09:36:03.524Z,3.00
2023-04-15T09:37:07.828Z,2.67
2023-04-15T09:38:10.754Z,2.60
2023-04-15T09:39:14.508Z,2.75
2023-04-15T09:40:33.207Z,2.50
2023-04-15T09:41:35.421Z,3.38
2023-04-15T09:42:56.028Z,2.80
2023-04-15T09:43:59.263Z,2.50
2023-04-15T09:45:09.223Z,3.35
2023-04-15T09:46:12.576Z,3.20
2023-04-15T09:47:28.251Z,3.65
2023-04-15T09:48:31.520Z,3.28
2023-04-15T09:49:34.138Z,3.80
2023-04-15T09:50:42.730Z,3.50
2023-04-15T09:51:57.616Z,3.45
2023-04-15T09:53:07.538Z,3.72
2023-04-15T09:54:09.685Z,3.75
2023-04-15T09:55:13.840Z,3.05
2023-04-15T09:56:17.161Z,3.97
2023-04-15T09:57:19.339Z,3.92
2023-04-15T09:58:26.455Z,3.35
2023-04-15T09:59:28.506Z,3.50
2023-04-15T10:00:32.911Z,3.60
2023-04-15T10:01:36.058Z,3.13
2023-04-15T10:02:41.017Z,3.60
2023-04-15T10:03:45.100Z,4.57
2023-04-15T10:04:49.831Z,3.55
2023-04-15T10:05:55.774Z,4.25
2023-04-15T10:06:58.595Z,3.97
2023-04-15T10:08:02.489Z,3.15
2023-04-15T10:09:07.577Z,4.47
2023-04-15T10:10:12.367Z,3.65
2023-04-15T10:11:14.537Z,3.80
2023-04-15T10:12:18.822Z,3.88
2023-04-15T10:13:25.267Z,4.18
2023-04-15T10:14:29.202Z,4.78
2023-04-15T10:15:33.736Z,4.38
2023-04-15T10:16:40.648Z,4.40
2023-04-15T10:17:45.019Z,4.55
2023-04-15T10:18:49.476Z,4.90
2023-04-15T10:19:54.327Z,4.85
2023-04-15T10:20:57.409Z,5.15
2023-04-15T10:22:00.051Z,5.05
2023-04-15T10:23:06.858Z,5.70
2023-04-15T10:24:12.081Z,4.50
2023-04-15T10:25:16.856Z,5.05
2023-04-15T10:26:19.719Z,4.90
2023-04-15T10:27:23.538Z,4.63
2023-04-15T10:28:28.142Z,4.85
2023-04-15T10:29:30.613Z,5.10
2023-04-15T10:30:34.841Z,4.45
2023-04-15T10:31:38.512Z,4.55
2023-04-15T10:32:42.617Z,5.22
2023-04-15T10:33:46.058Z,5.22
2023-04-15T10:34:54.178Z,6.22
2023-04-15T10:35:57.842Z,4.85
2023-04-15T10:37:03.758Z,4.72
2023-04-15T10:38:34.542Z,4.15
2023-04-15T10:39:42.821Z,5.55
2023-04-15T10:40:46.956Z,4.50
2023-04-15T10:42:08.161Z,4.22
2023-04-15T10:43:28.080Z,3.92
2023-04-15T10:44:30.269Z,4.72
2023-04-15T10:45:35.116Z,4.70
2023-04-15T10:46:40.100Z,4.90
2023-04-15T10:47:44.145Z,4.82
2023-04-15T10:48:51.542Z,4.60
2023-04-15T10:49:59.349Z,4.68
2023-04-15T10:51:03.723Z,4.78
2023-04-15T10:52:08.248Z,4.30
2023-04-15T10:53:12.277Z,4.40
2023-04-15T10:54:15.928Z,4.75
2023-04-15T10:55:22.309Z,4.63
2023-04-15T10:56:24.361Z,4.95
2023-04-15T10:57:36.045Z,4.38
2023-04-15T10:58:45.857Z,4.38
2023-04-15T11:00:11.333Z,4.78
2023-04-15T11:01:14.520Z,4.15
2023-04-15T11:02:16.629Z,4.80
2023-04-15T11:03:38.477Z,5.93
2023-04-15T11:05:02.614Z,4.10
2023-04-15T11:06:07.200Z,4.40
2023-04-15T11:07:09.700Z,4.43
2023-04-15T11:08:13.825Z,4.13
2023-04-15T11:09:32.460Z,4.20
2023-04-15T11:10:57.408Z,4.13
2023-04-15T11:12:07.406Z,4.35
2023-04-15T11:13:17.830Z,4.32
2023-04-15T11:14:22.308Z,4.63
2023-04-15T11:15:28.534Z,4.22
2023-04-15T11:16:31.567Z,4.80
2023-04-15T11:17:33.901Z,4.60
2023-04-15T11:18:38.014Z,5.10
2023-04-15T11:19:40.349Z,4.70
2023-04-15T11:20:46.073Z,4.53
2023-04-15T11:21:49.523Z,5.05
2023-04-15T11:23:08.378Z,4.80
2023-04-15T11:24:27.456Z,5.25
2023-04-15T11:25:31.538Z,4.20
2023-04-15T11:26:35.078Z,4.70
2023-04-15T11:27:37.815Z,4.43
2023-04-15T11:28:42.148Z,4.93
2023-04-15T11:29:45.484Z,4.70
2023-04-15T11:30:48.705Z,4.55
2023-04-15T11:31:51.374Z,4.38
2023-04-15T11:32:56.901Z,4.93
2023-04-15T11:34:01.517Z,5.05
2023-04-15T11:35:04.338Z,4.80
2023-04-15T11:36:07.918Z,4.70
2023-04-15T11:37:10.288Z,4.43
2023-04-15T11:38:15.366Z,5.05
2023-04-15T11:39:18.513Z,4.55
2023-04-15T11:40:24.693Z,5.50
2023-04-15T11:41:28.124Z,5.47
2023-04-15T11:42:42.773Z,5.20
2023-04-15T11:43:50.054Z,4.53
2023-04-15T11:45:07.639Z,5.53
2023-04-15T11:46:11.087Z,5.93
2023-04-15T11:47:23.476Z,5.90
2023-04-15T11:48:28.412Z,6.15
2023-04-15T11:49:31.262Z,5.75
2023-04-15T11:50:34.920Z,5.60
2023-04-15T11:51:38.043Z,5.95
2023-04-15T11:52:40.283Z,5.30
2023-04-15T11:53:44.752Z,6.10
2023-04-15T11:54:47.029Z,5.35
2023-04-15T11:55:51.853Z,5.45
2023-04-15T11:56:54.568Z,5.15
2023-04-15T11:58:16.359Z,5.28
2023-04-15T11:59:19.644Z,6.32
2023-04-15T12:00:23.182Z,5.03
2023-04-15T12:01:33.030Z,5.35
2023-04-15T12:02:37.513Z,6.13
2023-04-15T12:03:42.505Z,5.22
2023-04-15T12:04:45.958Z,5.05
2023-04-15T12:06:12.893Z,6.28
2023-04-15T12:07:16.656Z,5.72
2023-04-15T12:08:18.793Z,5.32
2023-04-15T12:09:22.985Z,5.88
2023-04-15T12:10:25.616Z,5.22
2023-04-15T12:11:34.082Z,5.25
2023-04-15T12:12:37.176Z,5.57
2023-04-15T12:13:39.210Z,5.47
2023-04-15T12:14:42.497Z,5.13
2023-04-15T12:15:46.008Z,6.25
2023-04-15T12:16:52.568Z,5.03
2023-04-15T12:17:55.641Z,5.28
2023-04-15T12:19:00.221Z,5.05
2023-04-15T12:20:03.399Z,4.90
2023-04-15T12:21:10.765Z,5.18
2023-04-15T12:22:16.417Z,4.82
2023-04-15T12:23:20.174Z,4.40
2023-04-15T12:24:23.949Z,4.57
2023-04-15T12:25:34.770Z,5.25
2023-04-15T12:26:43.985Z,4.20
2023-04-15T12:27:52.028Z,4.55
2023-04-15T12:28:56.206Z,3.97
2023-04-15T12:30:06.182Z,4.85
2023-04-15T12:31:10.138Z,4.18
2023-04-15T12:32:14.732Z,4.97
2023-04-15T12:33:16.878Z,5.20
2023-04-15T12:34:26.709Z,4.80
2023-04-15T12:35:29.735Z,4.72
2023-04-15T12:36:36.237Z,4.40
2023-04-15T12:37:39.434Z,4.70
2023-04-15T12:38:41.914Z,4.55
2023-04-15T12:39:46.554Z,5.53
2023-04-15T12:40:48.585Z,4.85
2023-04-15T12:41:51.805Z,4.22
2023-04-15T12:42:56.599Z,3.60
2023-04-15T12:43:59.315Z,4.75
2023-04-15T12:45:02.462Z,4.03
2023-04-15T12:46:05.025Z,4.22
2023-04-15T12:47:11.401Z,4.00
2023-04-15T12:48:13.594Z,4.35
2023-04-15T12:49:19.388Z,4.20
2023-04-15T12:50:21.417Z,3.60
2023-04-15T12:51:24.553Z,3.90
2023-04-15T12:52:30.776Z,3.92
2023-04-15T12:53:32.941Z,3.60
2023-04-15T12:54:36.131Z,3.30
2023-04-15T12:55:38.443Z,3.75
2023-04-15T12:56:41.648Z,4.00
2023-04-15T12:57:43.794Z,4.25
2023-04-15T12:58:46.902Z,4.00
2023-04-15T12:59:48.926Z,3.80
2023-04-15T13:00:52.786Z,3.70
2023-04-15T13:01:56.274Z,3.28
2023-04-15T13:02:59.892Z,3.30
2023-04-15T13:04:03.314Z,3.45
2023-04-15T13:05:06.836Z,3.55
2023-04-15T13:06:09.934Z,3.55
2023-04-15T13:07:14.023Z,3.60
2023-04-15T13:08:16.055Z,2.80
2023-04-15T13:09:19.156Z,3.45
2023-04-15T13:10:22.170Z,2.92
2023-04-15T13:11:27.362Z,3.20
2023-04-15T13:12:31.058Z,3.05
2023-04-15T13:13:34.460Z,3.25
2023-04-15T13:14:37.711Z,3.35
2023-04-15T13:15:39.824Z,2.83
2023-04-15T13:16:42.962Z,2.50
2023-04-15T13:17:44.990Z,3.55
2023-04-15T13:18:49.777Z,3.45
2023-04-15T13:19:51.873Z,2.67
2023-04-15T13:20:55.844Z,2.65
2023-04-15T13:21:57.892Z,3.20
2023-04-15T13:23:00.883Z,3.40
2023-04-15T13:24:04.267Z,2.85
2023-04-15T13:25:08.641Z,3.10
2023-04-15T13:26:12.286Z,3.00
2023-04-15T13:27:14.346Z,3.30
2023-04-15T13:28:17.401Z,3.17
2023-04-15T13:29:19.638Z,3.30
2023-04-15T13:30:22.742Z,3.15
2023-04-15T13:31:28.164Z,3.30
2023-04-15T13:32:30.332Z,3.63
2023-04-15T13:33:33.499Z,3.47
2023-04-15T13:34:37.146Z,4.20
2023-04-15T13:35:41.249Z,3.50
2023-04-15T13:36:43.517Z,4.68
2023-04-15T13:37:46.583Z,3.65
2023-04-15T13:38:50.964Z,3.85
2023-04-15T13:39:54.598Z,3.75
2023-04-15T13:40:57.889Z,4.10
2023-04-15T13:41:59.967Z,4.10
2023-04-15T13:43:03.336Z,4.03
2023-04-15T13:44:06.404Z,4.00
2023-04-15T13:45:11.079Z,3.80
2023-04-15T13:46:14.198Z,4.10
2023-04-15T13:47:17.752Z,3.72
2023-04-15T13:48:20.078Z,3.58
2023-04-15T13:49:23.173Z,4.00
2023-04-15T13:50:27.686Z,4.20
2023-04-15T13:51:29.701Z,4.07
2023-04-15T13:52:32.795Z,4.30
2023-04-15T13:53:39.062Z,4.45
2023-04-15T13:54:41.609Z,3.90
2023-04-15T13:55:44.799Z,4.60
2023-04-15T13:56:46.890Z,4.20
2023-04-15T13:57:50.463Z,4.22
2023-04-15T13:58:54.850Z,4.50
2023-04-15T13:59:57.974Z,4.70
2023-04-15T14:01:03.225Z,4.35
2023-04-15T14:02:07.169Z,4.60
2023-04-15T14:03:10.691Z,4.97
2023-04-15T14:04:13.541Z,4.32
2023-04-15T14:05:16.813Z,4.43
2023-04-15T14:06:20.214Z,4.10
2023-04-15T14:07:23.500Z,5.03
2023-04-15T14:08:25.843Z,4.28
2023-04-15T14:09:28.889Z,4.30
2023-04-15T14:10:30.945Z,4.78
2023-04-15T14:11:35.353Z,3.80
2023-04-15T14:12:37.711Z,3.42
2023-04-15T14:13:41.003Z,4.10
2023-04-15T14:14:44.948Z,4.03
2023-04-15T14:15:48.571Z,3.65
2023-04-15T14:16:50.716Z,3.60
2023-04-15T14:17:57.045Z,3.80
2023-04-15T14:19:01.027Z,3.75
2023-04-15T14:20:04.588Z,3.50
2023-04-15T14:21:07.107Z,4.70
2023-04-15T14:22:11.616Z,4.35
2023-04-15T14:23:13.701Z,5.05
2023-04-15T14:24:16.772Z,3.35
2023-04-15T14:25:30.433Z,2.97
2023-04-15T14:26:36.186Z,3.33
2023-04-15T14:27:38.520Z,3.70